KVBG/VBG METAR and TAF weather

Enter ICAO airport designator
Station Type Date Time Source
KVBG METAR 2019/06/18 17:32 UTC NOAA

KVBG 181732Z 27008KT 10SM FEW006 SCT012 SCT019 18/14 A2997 RMK AO2A


Station Type Date Time Source
KVBG Decoded METAR 2019/06/18 17:32 UTC NOAA

Lompoc, Vandenberg Air Force Base, CA, United States (KVBG) 34-43-46N 120-34-36W 121M
Jun 18, 2019 - 01:32 PM EDT / 2019.06.18 1732 UTC
Wind: from the W (270 degrees) at 9 MPH (8 KT):0
Visibility: 10 mile(s):0
Sky conditions: partly cloudy
Temperature: 64 F (18 C)
Dew Point: 57 F (14 C)
Relative Humidity: 77%
Pressure (altimeter): 29.97 in. Hg (1014 hPa)
ob: KVBG 181732Z 27008KT 10SM FEW006 SCT012 SCT019 18/14 A2997 RMK AO2A
cycle: 17

Station Type Date Time Source
KVBG TAF 2019/06/18 17:38 UTC NOAA

TAF
AMD KVBG 181730Z 1817/1920 30006KT 9999 FEW009 BKN012 BKN015 QNH2996INS
BECMG 1818/1819 25009KT 9999 FEW009 SCT012 QNH2997INS
BECMG 1821/1822 24009KT 9999 SCT008 BKN011 QNH2998INS
BECMG 1901/1902 27006KT 9999 OVC007 QNH2996INS
BECMG 1905/1906 VRB06KT 4800 BR OVC005 QNH2994INS
BECMG 1909/1910 VRB06KT 1600 BR OVC003 QNH2992INS
BECMG 1911/1912 VRB06KT 0800 FG OVC002 QNH2991INS
BECMG 1915/1916 VRB06KT 3200 BR SCT002 BKN005 QNH2992INS
BECMG 1917/1918 25009KT 9999 NSW SCT005 SCT009 QNH2993INS TX18/1821Z TN11/1914Z

Example: see airport list